Time;durP1;ratioP1;P1;durP2;ratioP2;P2;SDS_P1;SDS_P2;PMS_P1;PMS_P2;Temp;Humidity;BMP_temperature;BMP_pressure;BME280_temperature;BME280_humidity;BME280_pressure;Samples;Min_cycle;Max_cycle;Signal;HPM_P1;HPM_P2
2022/12/17 13:06:53;;;;;;;;;;;;;;;;;;4983873;28;19921;-79
2022/12/17 13:09:21;;;;;;;;;;;;;;;;;;4991163;28;20266;-80
2022/12/17 13:11:47;;;;;;;;;;;;;;;;;;5002832;28;19967;-79
2022/12/17 13:14:12;;;;;;;;;;;;;;;;;;4991803;28;19913;-78
2022/12/17 13:16:38;;;;;;;;;;;;;;;;;;5008438;28;19984;-84
2022/12/17 13:19:04;;;;;;;;;;;;;;;;;;5008333;28;21125;-84
2022/12/17 13:21:30;;;;;;;;;;;;;;;;;;5008757;28;19910;-87
2022/12/17 13:23:56;;;;;;;;;;;;;;;;;;5006868;28;19914;-87
2022/12/17 13:26:22;;;;;;;;;;;;;;;;;;4983710;28;20446;-87
2022/12/17 13:28:48;;;;;;;;;;;;;;;;;;5003521;28;19913;-83
2022/12/17 13:31:13;;;;;;;;;;;;;;;;;;5002384;28;19952;-85
2022/12/17 13:33:47;;;;;;;;;;;;;;;;;;4993685;28;19924;-87
2022/12/17 13:36:12;;;;;;;;;;;;;;;;;;4998739;28;20385;-83
2022/12/17 13:38:38;;;;;;;;;;;;;;;;;;5004159;28;19914;-87
2022/12/17 13:41:04;;;;;;;;;;;;;;;;;;5005520;28;19921;-83
2022/12/17 13:43:30;;;;;;;;;;;;;;;;;;5000117;28;19922;-85
2022/12/17 13:45:55;;;;;;;;;;;;;;;;;;5010128;28;20556;-83
2022/12/17 13:48:21;;;;;;;;;;;;;;;;;;5012305;28;19980;-77
2022/12/17 13:50:47;;;;;;;;;;;;;;;;;;4996224;28;19928;-83
2022/12/17 13:53:12;;;;;;;;;;;;;;;;;;5017520;28;20267;-85
2022/12/17 15:02:03;;;;;;;;;;;;;;;;;;3254652;26;19929;-83
2022/12/17 15:04:29;;;;;;;;;;;;;;;;;;5010749;28;19965;-84
2022/12/17 15:06:55;;;;;;;;;;;;;;;;;;5033786;28;19917;-88
2022/12/17 15:09:21;;;;;;;;;;;;;;;;;;5023839;28;19912;-85
2022/12/17 15:11:46;;;;;;;;;;;;;;;;;;5022703;28;19919;-85
2022/12/17 15:14:12;;;;;;;;;;;;;;;;;;5030112;28;19936;-83
2022/12/17 15:16:38;;;;;;;;;;;;;;;;;;5029903;28;20385;-82
2022/12/17 15:19:03;;;;;;;;;;;;;;;;;;5003414;28;19998;-82
2022/12/17 15:21:29;;;;;;;;;;;;;;;;;;5025447;28;19921;-79
2022/12/17 15:23:54;;;;;;;;;;;;;;;;;;5021291;28;20254;-82
2022/12/17 15:26:20;;;;;;;;;;;;;;;;;;5008906;28;19913;-81
2022/12/17 15:28:46;;;;;;;;;;;;;;;;;;5031953;28;19917;-81
2022/12/17 15:31:12;;;;;;;;;;;;;;;;;;5010559;28;19963;-80
2022/12/17 15:33:37;;;;;;;;;;;;;;;;;;5003360;28;19945;-82
2022/12/17 15:36:03;;;;;;;;;;;;;;;;;;5012222;28;19917;-81
2022/12/17 15:38:29;;;;;;;;;;;;;;;;;;5017647;28;19914;-80
2022/12/17 15:40:55;;;;;;;;;;;;;;;;;;5016952;28;20004;-81
2022/12/17 15:43:22;;;;;;;;;;;;;;;;;;5019771;28;19959;-80
2022/12/17 15:45:48;;;;;;;;;;;;;;;;;;5013761;28;19980;-81
2022/12/17 15:48:14;;;;;;;;;;;;;;;;;;5021983;28;19924;-81
2022/12/17 15:50:40;;;;;;;;;;;;;;;;;;5030210;28;19941;-82
2022/12/17 15:53:06;;;;;;;;;;;;;;;;;;5016498;28;20405;-84
2022/12/17 15:55:32;;;;;;;;;;;;;;;;;;5033601;28;19925;-83
2022/12/17 15:57:58;;;;;;;;;;;;;;;;;;5033508;28;19913;-84
2022/12/17 16:00:23;;;;;;;;;;;;;;;;;;5040841;28;19956;-83
2022/12/17 16:02:49;;;;;;;;;;;;;;;;;;5031931;28;19924;-84
2022/12/17 16:05:15;;;;;;;;;;;;;;;;;;5016975;28;19914;-83
2022/12/17 16:07:42;;;;;;;;;;;;;;;;;;5018481;28;19928;-84
2022/12/17 16:10:08;;;;;;;;;;;;;;;;;;5044261;28;19908;-83
2022/12/17 16:12:33;;;;;;;;;;;;;;;;;;5043676;28;19909;-85
2022/12/17 16:14:59;;;;;;;;;;;;;;;;;;5101727;22;19925;-84
2022/12/17 16:17:25;;;;;;;;;;;;;;;;;;5024782;28;19923;-83
2022/12/17 16:19:51;;;;;;;;;;;;;;;;;;5032174;28;19916;-81
2022/12/17 16:22:16;;;;;;;;;;;;;;;;;;5024158;28;19921;-83
2022/12/17 16:24:42;;;;;;;;;;;;;;;;;;5041066;28;19913;-84
2022/12/17 16:27:08;;;;;;;;;;;;;;;;;;5030430;28;19924;-82
2022/12/17 16:29:34;;;;;;;;;;;;;;;;;;5034144;28;20400;-82
2022/12/17 16:32:00;;;;;;;;;;;;;;;;;;5038391;28;20424;-83
2022/12/17 16:34:26;;;;;;;;;;;;;;;;;;5019762;28;20389;-82
2022/12/17 16:36:52;;;;;;;;;;;;;;;;;;5040928;28;19936;-83
2022/12/17 16:39:17;;;;;;;;;;;;;;;;;;5038263;28;19912;-81
2022/12/17 16:41:43;;;;;;;;;;;;;;;;;;5015976;28;20036;-81
2022/12/17 16:44:09;;;;;;;;;;;;;;;;;;5032629;28;19966;-82
2022/12/17 16:46:34;;;;;;;;;;;;;;;;;;5033144;28;19913;-82
2022/12/17 16:49:00;;;;;;;;;;;;;;;;;;5032487;28;19924;-81
2022/12/17 16:51:25;;;;;;;;;;;;;;;;;;5025399;28;20439;-80
2022/12/17 16:53:53;;;;;;;;;;;;;;;;;;5019168;28;19913;-82
2022/12/17 16:56:19;;;;;;;;;;;;;;;;;;5043168;28;19924;-82
2022/12/17 16:58:45;;;;;;;;;;;;;;;;;;5041704;28;19942;-83
2022/12/17 17:01:11;;;;;;;;;;;;;;;;;;5036576;28;19933;-85
2022/12/17 17:03:36;;;;;;;;;;;;;;;;;;5045931;28;20004;-83
2022/12/17 17:06:03;;;;;;;;;;;;;;;;;;5044233;28;19916;-82
2022/12/17 17:08:29;;;;;;;;;;;;;;;;;;5039971;28;20397;-82
2022/12/17 17:10:54;;;;;;;;;;;;;;;;;;5050274;28;19936;-82
2022/12/17 17:13:20;;;;;;;;;;;;;;;;;;5025857;28;19960;-81
2022/12/17 17:15:46;;;;;;;;;;;;;;;;;;5036614;28;19928;-81
2022/12/17 17:18:12;;;;;;;;;;;;;;;;;;5018489;28;19917;-80
2022/12/17 17:20:38;;;;;;;;;;;;;;;;;;5012146;28;19913;-83
2022/12/17 17:23:03;;;;;;;;;;;;;;;;;;5034591;28;19927;-81
2022/12/17 17:25:29;;;;;;;;;;;;;;;;;;5023460;28;21658;-81
2022/12/17 17:27:55;;;;;;;;;;;;;;;;;;5024845;28;20471;-82
2022/12/17 17:30:20;;;;;;;;;;;;;;;;;;5034286;28;19948;-82
2022/12/17 17:32:46;;;;;;;;;;;;;;;;;;5020700;28;19952;-81
2022/12/17 17:35:11;;;;;;;;;;;;;;;;;;5027161;28;19913;-79
2022/12/17 17:37:37;;;;;;;;;;;;;;;;;;5023736;28;19948;-81
2022/12/17 17:40:03;;;;;;;;;;;;;;;;;;5030664;28;19955;-80
2022/12/17 17:42:29;;;;;;;;;;;;;;;;;;5029409;28;19927;-82
2022/12/17 17:44:54;;;;;;;;;;;;;;;;;;5032215;28;19938;-81
2022/12/17 17:47:22;;;;;;;;;;;;;;;;;;5032348;28;19991;-82
2022/12/17 17:49:48;;;;;;;;;;;;;;;;;;5032216;28;19948;-84
2022/12/17 17:52:13;;;;;;;;;;;;;;;;;;5031594;28;20007;-80
2022/12/17 17:54:39;;;;;;;;;;;;;;;;;;5027877;28;20006;-81
2022/12/17 17:57:06;;;;;;;;;;;;;;;;;;5009316;28;19924;-82
2022/12/17 17:59:32;;;;;;;;;;;;;;;;;;4981162;28;20488;-79
2022/12/17 18:01:58;;;;;;;;;;;;;;;;;;5029697;28;19920;-84
2022/12/17 18:04:23;;;;;;;;;;;;;;;;;;5014339;28;19919;-82
2022/12/17 18:06:49;;;;;;;;;;;;;;;;;;5041308;28;19964;-84
2022/12/17 18:09:15;;;;;;;;;;;;;;;;;;5034107;28;19925;-81
2022/12/17 18:11:41;;;;;;;;;;;;;;;;;;5034401;28;19920;-82
2022/12/17 18:14:08;;;;;;;;;;;;;;;;;;5030954;28;19916;-80
2022/12/17 18:16:34;;;;;;;;;;;;;;;;;;5025055;28;19913;-80
2022/12/17 18:18:59;;;;;;;;;;;;;;;;;;5025361;28;20373;-78
2022/12/17 18:21:25;;;;;;;;;;;;;;;;;;5023318;28;20412;-78
2022/12/17 18:23:51;;;;;;;;;;;;;;;;;;5018679;28;19913;-78
2022/12/17 18:26:17;;;;;;;;;;;;;;;;;;5022561;28;20055;-77
2022/12/17 18:28:42;;;;;;;;;;;;;;;;;;5021430;28;20474;-77
2022/12/17 18:31:08;;;;;;;;;;;;;;;;;;5021067;28;19999;-78
2022/12/17 18:33:34;;;;;;;;;;;;;;;;;;5024986;28;19913;-78
2022/12/17 18:35:59;;;;;;;;;;;;;;;;;;5025121;28;20336;-78
2022/12/17 18:38:25;;;;;;;;;;;;;;;;;;5024420;28;20373;-78
2022/12/17 18:40:50;;;;;;;;;;;;;;;;;;5027653;28;19954;-78
2022/12/17 18:43:22;;;;;;;;;;;;;;;;;;5008274;28;19913;-80
2022/12/17 18:45:48;;;;;;;;;;;;;;;;;;5021091;28;20440;-78
2022/12/17 18:48:14;;;;;;;;;;;;;;;;;;5003348;28;19913;-78
2022/12/17 18:50:39;;;;;;;;;;;;;;;;;;5002755;28;19955;-80
2022/12/17 18:53:05;;;;;;;;;;;;;;;;;;5030181;28;19909;-80
2022/12/17 18:55:31;;;;;;;;;;;;;;;;;;5033553;28;19948;-81
2022/12/17 18:57:56;;;;;;;;;;;;;;;;;;5030871;28;19913;-81
2022/12/17 19:00:22;;;;;;;;;;;;;;;;;;5034560;28;19912;-81
2022/12/17 19:02:47;;;;;;;;;;;;;;;;;;5039128;28;19921;-81
2022/12/17 19:05:13;;;;;;;;;;;;;;;;;;5039786;28;19917;-82
2022/12/17 19:07:39;;;;;;;;;;;;;;;;;;5042480;28;19913;-81
2022/12/17 19:10:05;;;;;;;;;;;;;;;;;;5041192;28;19917;-80
2022/12/17 19:12:31;;;;;;;;;;;;;;;;;;5037797;28;19914;-82
2022/12/17 19:14:57;;;;;;;;;;;;;;;;;;5013458;28;20402;-81
2022/12/17 19:17:24;;;;;;;;;;;;;;;;;;5014008;28;20107;-80
2022/12/17 19:19:49;;;;;;;;;;;;;;;;;;5022477;28;19920;-83
2022/12/17 19:22:15;;;;;;;;;;;;;;;;;;5030151;28;19981;-82
2022/12/17 19:24:41;;;;;;;;;;;;;;;;;;5028538;28;19919;-83
2022/12/17 19:27:06;;;;;;;;;;;;;;;;;;5029679;28;19944;-83
2022/12/17 19:29:33;;;;;;;;;;;;;;;;;;5021097;28;19920;-83
2022/12/17 19:31:59;;;;;;;;;;;;;;;;;;5025133;28;19917;-82
2022/12/17 19:34:25;;;;;;;;;;;;;;;;;;5024420;28;19913;-82
2022/12/17 19:36:50;;;;;;;;;;;;;;;;;;5028124;28;19913;-82
2022/12/17 19:39:16;;;;;;;;;;;;;;;;;;5025530;28;19937;-83
2022/12/17 19:41:41;;;;;;;;;;;;;;;;;;5028315;28;20341;-83
2022/12/17 19:44:07;;;;;;;;;;;;;;;;;;5023304;28;19937;-82
2022/12/17 19:46:33;;;;;;;;;;;;;;;;;;5025663;28;19913;-82
2022/12/17 19:48:58;;;;;;;;;;;;;;;;;;5022086;28;19914;-81
2022/12/17 19:51:24;;;;;;;;;;;;;;;;;;5013178;28;20047;-80
2022/12/17 19:53:50;;;;;;;;;;;;;;;;;;5013759;28;19913;-81
2022/12/17 19:56:15;;;;;;;;;;;;;;;;;;5010311;28;19921;-81
2022/12/17 19:58:41;;;;;;;;;;;;;;;;;;5010520;28;19936;-80
2022/12/17 20:01:07;;;;;;;;;;;;;;;;;;5013166;28;19999;-82
2022/12/17 20:03:33;;;;;;;;;;;;;;;;;;5012359;28;19917;-81
2022/12/17 20:05:59;;;;;;;;;;;;;;;;;;4991022;28;19920;-77
2022/12/17 20:08:24;;;;;;;;;;;;;;;;;;5006382;28;19917;-77
2022/12/17 20:10:53;;;;;;;;;;;;;;;;;;5003220;28;19913;-80
2022/12/17 20:13:18;;;;;;;;;;;;;;;;;;5006690;28;19913;-78
2022/12/17 20:15:44;;;;;;;;;;;;;;;;;;5022663;28;19920;-81
2022/12/17 20:18:10;;;;;;;;;;;;;;;;;;5028391;28;19956;-78
2022/12/17 20:20:36;;;;;;;;;;;;;;;;;;5029103;28;19913;-78
2022/12/17 20:23:02;;;;;;;;;;;;;;;;;;5028884;28;19913;-79
2022/12/17 20:25:28;;;;;;;;;;;;;;;;;;5007951;28;19975;-80
2022/12/17 20:27:54;;;;;;;;;;;;;;;;;;5024307;28;21633;-77
2022/12/17 20:30:20;;;;;;;;;;;;;;;;;;5025358;28;19920;-79
2022/12/17 20:32:48;;;;;;;;;;;;;;;;;;5029422;28;19913;-80
2022/12/17 20:35:14;;;;;;;;;;;;;;;;;;5007773;28;20024;-78
2022/12/17 20:37:39;;;;;;;;;;;;;;;;;;5029200;28;20020;-80
2022/12/17 20:40:05;;;;;;;;;;;;;;;;;;5026479;28;20007;-78
2022/12/17 20:42:31;;;;;;;;;;;;;;;;;;5010329;28;19921;-78
2022/12/17 20:44:56;;;;;;;;;;;;;;;;;;5006683;28;19913;-83
2022/12/17 20:47:22;;;;;;;;;;;;;;;;;;5041039;28;19913;-80
2022/12/17 20:49:48;;;;;;;;;;;;;;;;;;5027747;28;19924;-78
2022/12/17 20:52:13;;;;;;;;;;;;;;;;;;5024714;28;20015;-79
2022/12/17 20:54:39;;;;;;;;;;;;;;;;;;5005211;28;19967;-78
2022/12/17 20:57:05;;;;;;;;;;;;;;;;;;5026299;28;20500;-78
2022/12/17 20:59:30;;;;;;;;;;;;;;;;;;5026369;28;19913;-79
2022/12/17 21:01:56;;;;;;;;;;;;;;;;;;5026884;28;19920;-79
2022/12/17 21:04:22;;;;;;;;;;;;;;;;;;5008416;28;19913;-79
2022/12/17 21:06:48;;;;;;;;;;;;;;;;;;5027536;28;20400;-80
2022/12/17 21:09:13;;;;;;;;;;;;;;;;;;5007433;28;19913;-80
2022/12/17 21:11:39;;;;;;;;;;;;;;;;;;5027455;28;19949;-81
2022/12/17 21:14:05;;;;;;;;;;;;;;;;;;5024392;28;19938;-81
2022/12/17 21:16:33;;;;;;;;;;;;;;;;;;5027398;28;19999;-82
2022/12/17 21:18:59;;;;;;;;;;;;;;;;;;5026599;28;19913;-80
2022/12/17 21:21:24;;;;;;;;;;;;;;;;;;5028263;28;19929;-80
2022/12/17 21:23:50;;;;;;;;;;;;;;;;;;5024547;28;19920;-79
2022/12/17 21:26:16;;;;;;;;;;;;;;;;;;5027374;28;19913;-80
2022/12/17 21:28:43;;;;;;;;;;;;;;;;;;5018906;28;20333;-80
2022/12/17 21:31:09;;;;;;;;;;;;;;;;;;5025651;28;20622;-75
2022/12/17 21:33:35;;;;;;;;;;;;;;;;;;5019825;28;19912;-76
2022/12/17 21:36:00;;;;;;;;;;;;;;;;;;5018970;28;20436;-74
2022/12/17 21:38:26;;;;;;;;;;;;;;;;;;5007022;28;20251;-73
2022/12/17 21:40:52;;;;;;;;;;;;;;;;;;5022017;28;19946;-73
2022/12/17 21:43:17;;;;;;;;;;;;;;;;;;4982917;28;20003;-73
2022/12/17 21:45:43;;;;;;;;;;;;;;;;;;5017062;28;19913;-73
2022/12/17 21:48:09;;;;;;;;;;;;;;;;;;5018207;28;19948;-74
2022/12/17 21:50:34;;;;;;;;;;;;;;;;;;5018417;28;19939;-72
2022/12/17 21:53:00;;;;;;;;;;;;;;;;;;4998771;28;20004;-74
2022/12/17 21:55:26;;;;;;;;;;;;;;;;;;5016811;28;20404;-74
2022/12/17 21:57:52;;;;;;;;;;;;;;;;;;5022634;28;20301;-74
2022/12/17 22:00:17;;;;;;;;;;;;;;;;;;5006576;28;19953;-74
2022/12/17 22:02:43;;;;;;;;;;;;;;;;;;5001883;28;20015;-74
2022/12/17 22:05:09;;;;;;;;;;;;;;;;;;5025731;28;20016;-73
2022/12/17 22:07:34;;;;;;;;;;;;;;;;;;5004961;28;19956;-73
2022/12/17 22:10:00;;;;;;;;;;;;;;;;;;5016618;28;20297;-74
2022/12/17 22:15:10;;;;;;;;;;;;;;;;;;5017878;28;19921;-74
2022/12/17 22:17:36;;;;;;;;;;;;;;;;;;5000062;28;20707;-73
2022/12/17 22:20:01;;;;;;;;;;;;;;;;;;5016036;28;19920;-74
2022/12/17 22:22:28;;;;;;;;;;;;;;;;;;5018220;28;19932;-74
2022/12/17 22:24:53;;;;;;;;;;;;;;;;;;5021032;28;20340;-74
2022/12/17 22:27:22;;;;;;;;;;;;;;;;;;5019002;28;19909;-74
2022/12/17 22:35:17;;;;;;;;;;;;;;;;;;4998443;28;19948;-73
2022/12/17 22:37:42;;;;;;;;;;;;;;;;;;5022109;28;19964;-74
2022/12/17 22:40:08;;;;;;;;;;;;;;;;;;5005517;28;19944;-74
2022/12/17 22:45:18;;;;;;;;;;;;;;;;;;5022120;28;19912;-74
2022/12/17 22:47:44;;;;;;;;;;;;;;;;;;5020897;28;19919;-75
2022/12/17 22:50:09;;;;;;;;;;;;;;;;;;4995534;28;20286;-73
2022/12/17 22:52:35;;;;;;;;;;;;;;;;;;5004668;28;19969;-73
2022/12/17 22:55:01;;;;;;;;;;;;;;;;;;5019688;28;19964;-73
2022/12/17 22:57:28;;;;;;;;;;;;;;;;;;5021196;28;19927;-72
2022/12/17 22:59:54;;;;;;;;;;;;;;;;;;5022032;28;20015;-73
2022/12/17 23:02:19;;;;;;;;;;;;;;;;;;5021491;28;19926;-73
2022/12/17 23:04:45;;;;;;;;;;;;;;;;;;5021856;28;19967;-73
2022/12/17 23:07:11;;;;;;;;;;;;;;;;;;5020143;28;20012;-74
2022/12/17 23:09:36;;;;;;;;;;;;;;;;;;5023312;28;19913;-73
2022/12/17 23:12:49;;;;;;;;;;;;;;;;;;5019661;28;19963;-73
2022/12/17 23:14:48;;;;;;;;;;;;;;;;;;5019147;28;19952;-74
2022/12/17 23:17:13;;;;;;;;;;;;;;;;;;5022860;28;19917;-74
2022/12/17 23:19:39;;;;;;;;;;;;;;;;;;5003709;28;19913;-73
2022/12/17 23:22:05;;;;;;;;;;;;;;;;;;5020909;28;19927;-73
2022/12/17 23:24:31;;;;;;;;;;;;;;;;;;5019808;28;20389;-73
2022/12/17 23:26:57;;;;;;;;;;;;;;;;;;5019290;28;19924;-73
2022/12/17 23:29:23;;;;;;;;;;;;;;;;;;5021043;28;20389;-74
2022/12/17 23:31:49;;;;;;;;;;;;;;;;;;5019373;28;19914;-72
2022/12/17 23:34:14;;;;;;;;;;;;;;;;;;5019686;28;19917;-73
2022/12/17 23:36:40;;;;;;;;;;;;;;;;;;5021101;28;20931;-73
2022/12/17 23:39:05;;;;;;;;;;;;;;;;;;5024114;28;19940;-73
2022/12/17 23:41:31;;;;;;;;;;;;;;;;;;5010551;28;19921;-73
2022/12/17 23:43:56;;;;;;;;;;;;;;;;;;5018943;28;19912;-73
2022/12/17 23:46:22;;;;;;;;;;;;;;;;;;5009547;28;20301;-73
2022/12/17 23:48:48;;;;;;;;;;;;;;;;;;5021468;28;19919;-73
2022/12/17 23:51:13;;;;;;;;;;;;;;;;;;5019042;28;19920;-73
2022/12/17 23:53:39;;;;;;;;;;;;;;;;;;5020709;28;19913;-74
2022/12/17 23:56:05;;;;;;;;;;;;;;;;;;5019595;28;19920;-74
2022/12/17 23:58:31;;;;;;;;;;;;;;;;;;5018863;28;19919;-73
